createdAt,value
2022-08-23T00:02:23.477Z,18.34
2022-08-23T00:07:26.333Z,18.37
2022-08-23T00:12:31.994Z,18.37
2022-08-23T00:17:35.057Z,18.33
2022-08-23T00:22:38.752Z,18.26
2022-08-23T00:27:41.109Z,18.24
2022-08-23T00:32:43.861Z,18.22
2022-08-23T00:37:46.456Z,18.24
2022-08-23T00:43:32.504Z,18.25
2022-08-23T00:48:35.213Z,18.26
2022-08-23T00:53:46.904Z,18.23
2022-08-23T00:58:49.837Z,18.22
2022-08-23T01:04:04.450Z,18.22
2022-08-23T01:09:12.543Z,18.24
2022-08-23T01:14:24.615Z,18.23
2022-08-23T01:19:37.319Z,18.21
2022-08-23T01:24:59.804Z,18.20
2022-08-23T01:30:06.378Z,18.19
2022-08-23T01:35:09.771Z,18.21
2022-08-23T01:40:13.823Z,18.25
2022-08-23T01:45:17.176Z,18.25
2022-08-23T01:50:20.324Z,18.25
2022-08-23T01:55:22.759Z,18.26
2022-08-23T02:00:34.120Z,18.26
2022-08-23T02:05:37.453Z,18.27
2022-08-23T02:10:39.432Z,18.26
2022-08-23T02:15:44.313Z,18.24
2022-08-23T02:20:49.239Z,18.20
2022-08-23T02:25:52.372Z,18.19
2022-08-23T02:30:56.309Z,18.20
2022-08-23T02:36:00.443Z,18.19
2022-08-23T02:41:02.327Z,18.11
2022-08-23T02:46:06.608Z,18.05
2022-08-23T02:51:09.893Z,18.04
2022-08-23T02:56:21.201Z,18.07
2022-08-23T03:01:33.749Z,18.08
2022-08-23T03:06:47.408Z,18.10
2022-08-23T03:11:50.444Z,18.11
2022-08-23T03:16:56.082Z,18.12
2022-08-23T03:22:00.917Z,18.13
2022-08-23T03:27:07.083Z,18.16
2022-08-23T03:32:09.796Z,18.18
2022-08-23T03:37:13.794Z,18.19
2022-08-23T03:42:16.828Z,18.20
2022-08-23T03:47:23.833Z,18.17
2022-08-23T03:52:26.606Z,18.16
2022-08-23T03:57:28.615Z,18.13
2022-08-23T04:02:30.804Z,18.09
2022-08-23T04:07:32.840Z,18.08
2022-08-23T04:12:35.251Z,18.05
2022-08-23T04:17:38.467Z,18.04
2022-08-23T04:22:40.626Z,18.04
2022-08-23T04:27:42.712Z,18.02
2022-08-23T04:32:44.689Z,18.01
2022-08-23T04:37:46.920Z,17.97
2022-08-23T04:42:48.835Z,17.96
2022-08-23T04:47:51.597Z,17.95
2022-08-23T04:52:53.477Z,17.97
2022-08-23T04:57:55.700Z,17.98
2022-08-23T05:03:00.982Z,17.98
2022-08-23T05:08:03.208Z,18.00
2022-08-23T05:13:05.213Z,17.97
2022-08-23T05:18:07.177Z,17.99
2022-08-23T05:23:11.234Z,18.00
2022-08-23T05:28:31.960Z,18.03
2022-08-23T05:33:35.724Z,18.07
2022-08-23T05:38:38.447Z,18.06
2022-08-23T05:43:42.308Z,18.06
2022-08-23T05:48:47.450Z,18.06
2022-08-23T05:53:54.859Z,18.09
2022-08-23T05:59:00.146Z,18.12
2022-08-23T06:04:07.676Z,18.09
2022-08-23T06:09:15.260Z,18.11
2022-08-23T06:14:18.162Z,18.13
2022-08-23T06:19:20.965Z,18.13
2022-08-23T06:24:54.706Z,18.12
2022-08-23T06:30:13.352Z,18.15
2022-08-23T06:35:38.421Z,18.15
2022-08-23T06:40:48.196Z,18.16
2022-08-23T06:46:17.007Z,18.16
2022-08-23T06:51:31.863Z,18.17
2022-08-23T06:56:56.235Z,18.16
2022-08-23T07:02:18.642Z,18.18
2022-08-23T07:07:23.624Z,18.18
2022-08-23T07:12:26.769Z,18.19
2022-08-23T07:17:28.631Z,18.23
2022-08-23T07:22:30.924Z,18.25
2022-08-23T07:27:33.111Z,18.26
2022-08-23T07:32:38.047Z,18.27
2022-08-23T07:38:09.499Z,18.28
2022-08-23T07:43:12.155Z,18.28
2022-08-23T07:48:23.531Z,18.27
2022-08-23T07:54:06.879Z,18.31
2022-08-23T07:59:14.405Z,18.33
2022-08-23T08:04:35.015Z,18.33
2022-08-23T08:09:37.630Z,18.35
2022-08-23T08:14:40.054Z,18.38
2022-08-23T08:19:43.713Z,18.43
2022-08-23T08:25:04.512Z,18.49
2022-08-23T08:30:09.315Z,18.52
2022-08-23T08:35:11.971Z,18.60
2022-08-23T08:40:18.416Z,18.67
2022-08-23T08:45:32.760Z,18.73
2022-08-23T08:50:43.908Z,18.72
2022-08-23T08:56:00.774Z,18.72
2022-08-23T09:01:03.152Z,18.70
2022-08-23T09:06:22.893Z,18.79
2022-08-23T09:11:45.966Z,18.83
2022-08-23T09:16:57.826Z,18.88
2022-08-23T09:22:13.572Z,18.93
2022-08-23T09:27:16.099Z,18.98
2022-08-23T09:32:30.221Z,19.06
2022-08-23T09:38:02.792Z,19.18
2022-08-23T09:43:15.693Z,19.24
2022-08-23T09:48:34.424Z,19.33
2022-08-23T09:53:41.104Z,19.41
2022-08-23T09:58:47.265Z,19.49
2022-08-23T10:04:13.800Z,19.50
2022-08-23T10:09:27.151Z,19.54
2022-08-23T10:14:33.973Z,19.59
2022-08-23T10:20:22.219Z,19.64
2022-08-23T10:25:40.566Z,19.66
2022-08-23T10:30:51.866Z,19.62
2022-08-23T10:36:07.286Z,19.65
2022-08-23T10:41:37.790Z,19.65
2022-08-23T10:47:10.178Z,19.67
2022-08-23T10:52:27.182Z,19.70
2022-08-23T10:57:40.171Z,19.73
2022-08-23T11:03:08.851Z,19.74
2022-08-23T11:08:34.736Z,19.73
2022-08-23T11:13:53.465Z,19.67
2022-08-23T11:18:56.211Z,19.66
2022-08-23T11:24:06.566Z,19.68
2022-08-23T11:29:10.990Z,19.71
2022-08-23T11:34:22.401Z,19.67
2022-08-23T11:40:00.405Z,19.68
2022-08-23T11:45:23.121Z,19.65
2022-08-23T11:50:45.669Z,19.66
2022-08-23T11:56:33.037Z,19.65
2022-08-23T12:01:38.982Z,19.64
2022-08-23T12:06:55.845Z,19.70
2022-08-23T12:11:57.744Z,19.76
2022-08-23T12:17:28.830Z,19.80
2022-08-23T12:23:10.794Z,19.83
2022-08-23T12:28:34.355Z,19.89
2022-08-23T12:33:54.443Z,19.92
2022-08-23T12:39:20.386Z,19.97
2022-08-23T12:44:26.105Z,19.99
2022-08-23T12:49:34.187Z,19.99
2022-08-23T12:54:55.041Z,19.99
2022-08-23T13:00:18.488Z,19.98
2022-08-23T13:05:39.352Z,19.97
2022-08-23T13:10:44.273Z,19.97
2022-08-23T13:15:51.489Z,19.99
2022-08-23T13:21:24.139Z,20.03
2022-08-23T13:26:37.922Z,20.03
2022-08-23T13:32:03.252Z,20.05
2022-08-23T13:37:15.469Z,20.05
2022-08-23T13:42:34.103Z,20.03
2022-08-23T13:47:37.854Z,19.98
2022-08-23T13:53:03.188Z,19.98
2022-08-23T13:58:02.433Z,19.95
2022-08-23T14:03:05.143Z,19.99
2022-08-23T14:08:07.267Z,19.98
2022-08-23T14:13:11.621Z,19.97
2022-08-23T14:18:13.665Z,19.95
2022-08-23T14:23:15.777Z,19.96
2022-08-23T14:28:18.839Z,19.98
2022-08-23T14:33:21.783Z,20.02
2022-08-23T14:38:24.247Z,20.07
2022-08-23T14:43:27.752Z,20.10
2022-08-23T14:48:29.809Z,20.12
2022-08-23T14:53:36.493Z,20.16
2022-08-23T14:58:40.571Z,20.23
2022-08-23T15:03:43.073Z,20.31
2022-08-23T15:08:45.506Z,20.34
2022-08-23T15:13:55.204Z,20.33
2022-08-23T15:18:58.416Z,20.31
2022-08-23T15:24:00.572Z,20.30
2022-08-23T15:29:03.334Z,20.29
2022-08-23T15:34:05.459Z,20.29
2022-08-23T15:39:15.258Z,20.29
2022-08-23T15:44:17.166Z,20.24
2022-08-23T15:49:19.134Z,20.23
2022-08-23T15:54:21.695Z,20.25
2022-08-23T15:59:24.178Z,20.26
2022-08-23T16:04:26.164Z,20.30
2022-08-23T16:09:36.449Z,20.35
2022-08-23T16:14:38.830Z,20.41
2022-08-23T16:19:40.954Z,20.44
2022-08-23T16:24:46.510Z,20.46
2022-08-23T16:29:48.873Z,20.47
2022-08-23T16:34:50.971Z,20.45
2022-08-23T16:39:53.173Z,20.37
2022-08-23T16:44:55.482Z,20.35
2022-08-23T16:49:57.390Z,20.34
2022-08-23T16:54:59.378Z,20.32
2022-08-23T17:00:02.336Z,20.30
2022-08-23T17:05:07.012Z,20.28
2022-08-23T17:10:11.592Z,20.26
2022-08-23T17:15:18.936Z,20.23
2022-08-23T17:20:25.587Z,20.21
2022-08-23T17:25:27.913Z,20.20
2022-08-23T17:30:30.386Z,20.20
2022-08-23T17:35:33.919Z,20.19
2022-08-23T17:40:39.812Z,20.19
2022-08-23T17:45:46.600Z,20.19
2022-08-23T17:50:49.346Z,20.19
2022-08-23T17:55:51.299Z,20.18
2022-08-23T18:00:53.255Z,20.15
2022-08-23T18:05:55.122Z,20.09
2022-08-23T18:10:58.362Z,20.04
2022-08-23T18:16:00.616Z,19.97
2022-08-23T18:21:07.729Z,19.92
2022-08-23T18:26:31.193Z,19.86
2022-08-23T18:31:33.672Z,19.81
2022-08-23T18:36:35.845Z,19.78
2022-08-23T18:41:38.603Z,19.76
2022-08-23T18:46:41.909Z,19.76
2022-08-23T18:51:43.879Z,19.76
2022-08-23T18:56:46.728Z,19.76
2022-08-23T19:01:49.132Z,19.76
2022-08-23T19:06:54.121Z,19.78
2022-08-23T19:11:57.135Z,19.77
2022-08-23T19:17:05.711Z,19.78
2022-08-23T19:22:07.657Z,19.79
2022-08-23T19:27:09.693Z,19.80
2022-08-23T19:32:14.982Z,19.80
2022-08-23T19:37:22.738Z,19.78
2022-08-23T19:42:26.756Z,19.78
2022-08-23T19:47:28.944Z,19.79
2022-08-23T19:52:34.071Z,19.78
2022-08-23T19:57:37.820Z,19.78
2022-08-23T20:02:39.616Z,19.77
2022-08-23T20:07:42.383Z,19.76
2022-08-23T20:12:44.390Z,19.73
2022-08-23T20:17:46.287Z,19.71
2022-08-23T20:23:06.879Z,19.69
2022-08-23T20:28:08.739Z,19.69
2022-08-23T20:33:10.550Z,19.69
2022-08-23T20:38:22.369Z,19.71
2022-08-23T20:43:35.867Z,19.69
2022-08-23T20:48:37.682Z,19.67
2022-08-23T20:53:42.570Z,19.67
2022-08-23T20:58:44.754Z,19.66
2022-08-23T21:03:47.009Z,19.65
2022-08-23T21:08:53.389Z,19.65
2022-08-23T21:13:57.439Z,19.64
2022-08-23T21:19:00.499Z,19.63
2022-08-23T21:24:03.733Z,19.63
2022-08-23T21:29:07.833Z,19.62
2022-08-23T21:34:09.834Z,19.62
2022-08-23T21:39:11.618Z,19.63
2022-08-23T21:44:16.336Z,19.61
2022-08-23T21:49:21.152Z,19.58
2022-08-23T21:54:22.997Z,19.57
2022-08-23T21:59:26.306Z,19.56
2022-08-23T22:05:00.723Z,19.55
2022-08-23T22:10:06.523Z,19.55
2022-08-23T22:15:09.569Z,19.55
2022-08-23T22:20:13.739Z,19.56
2022-08-23T22:25:17.719Z,19.53
2022-08-23T22:30:21.120Z,19.52
2022-08-23T22:35:23.299Z,19.51
2022-08-23T22:40:25.427Z,19.50
2022-08-23T22:45:27.507Z,19.51
2022-08-23T22:50:29.505Z,19.51
2022-08-23T22:55:31.540Z,19.51
2022-08-23T23:00:34.027Z,19.51
2022-08-23T23:05:36.864Z,19.51
2022-08-23T23:10:38.868Z,19.51
2022-08-23T23:15:41.725Z,19.51
2022-08-23T23:20:43.783Z,19.49
2022-08-23T23:25:46.343Z,19.48
2022-08-23T23:30:51.510Z,19.45
2022-08-23T23:35:53.743Z,19.43
2022-08-23T23:40:55.690Z,19.43
2022-08-23T23:45:57.698Z,19.43
2022-08-23T23:50:59.700Z,19.45
2022-08-23T23:56:02.809Z,19.46
